createdAt,value
2022-12-22T00:01:52.769Z,23.83
2022-12-22T00:04:38.056Z,22.45
2022-12-22T00:07:23.550Z,22.98
2022-12-22T00:10:08.778Z,24.33
2022-12-22T00:12:55.377Z,21.63
2022-12-22T00:15:40.605Z,22.40
2022-12-22T00:18:31.824Z,19.00
2022-12-22T00:21:17.241Z,17.23
2022-12-22T00:24:02.779Z,21.55
2022-12-22T00:26:48.954Z,19.77
2022-12-22T00:29:36.840Z,17.00
2022-12-22T00:32:23.507Z,16.88
2022-12-22T00:35:09.704Z,16.30
2022-12-22T00:37:56.614Z,14.07
2022-12-22T00:40:46.596Z,17.33
2022-12-22T00:43:31.819Z,18.30
2022-12-22T00:46:19.903Z,17.85
2022-12-22T00:49:05.752Z,16.45
2022-12-22T00:51:51.613Z,17.60
2022-12-22T00:54:38.138Z,16.20
2022-12-22T00:57:23.383Z,17.67
2022-12-22T01:00:09.352Z,18.60
2022-12-22T01:02:55.931Z,16.20
2022-12-22T01:05:41.205Z,20.25
2022-12-22T01:08:29.030Z,17.38
2022-12-22T01:11:14.224Z,17.50
2022-12-22T01:13:59.682Z,18.13
2022-12-22T01:16:45.145Z,16.45
2022-12-22T01:19:31.759Z,18.73
2022-12-22T01:22:17.202Z,15.90
2022-12-22T01:25:03.976Z,18.20
2022-12-22T01:27:49.328Z,18.60
2022-12-22T01:30:35.540Z,20.50
2022-12-22T01:33:20.803Z,16.75
2022-12-22T01:36:08.169Z,20.05
2022-12-22T01:38:53.595Z,18.98
2022-12-22T01:41:40.357Z,18.73
2022-12-22T01:44:32.448Z,19.10
2022-12-22T01:47:48.889Z,21.42
2022-12-22T01:50:36.223Z,19.23
2022-12-22T01:53:25.573Z,17.05
2022-12-22T01:56:12.073Z,16.90
2022-12-22T01:59:00.913Z,19.48
2022-12-22T02:01:48.176Z,19.92
2022-12-22T02:04:34.634Z,18.10
2022-12-22T02:07:28.673Z,14.90
2022-12-22T02:10:26.692Z,16.45
2022-12-22T02:13:18.050Z,15.13
2022-12-22T02:16:08.759Z,18.08
2022-12-22T02:19:00.984Z,16.17
2022-12-22T02:21:49.099Z,16.00
2022-12-22T02:24:45.078Z,18.58
2022-12-22T02:27:32.729Z,14.45
2022-12-22T02:30:22.085Z,20.30
2022-12-22T02:33:09.918Z,13.68
2022-12-22T02:36:02.148Z,17.92
2022-12-22T02:38:59.450Z,13.70
2022-12-22T02:41:52.522Z,13.05
2022-12-22T02:44:46.777Z,12.40
2022-12-22T02:47:38.842Z,10.65
2022-12-22T02:50:32.025Z,11.75
2022-12-22T02:53:18.903Z,12.15
2022-12-22T02:56:04.868Z,13.15
2022-12-22T02:58:51.541Z,11.30
2022-12-22T03:01:38.246Z,11.80
2022-12-22T03:04:23.595Z,12.00
2022-12-22T03:07:08.856Z,11.43
2022-12-22T03:09:57.419Z,15.52
2022-12-22T03:12:42.643Z,12.32
2022-12-22T03:15:28.513Z,12.55
2022-12-22T03:18:19.985Z,12.55
2022-12-22T03:21:05.260Z,14.10
2022-12-22T03:23:50.806Z,12.45
2022-12-22T03:26:18.697Z,13.52
2022-12-22T03:28:46.535Z,16.10
2022-12-22T03:31:14.329Z,11.95
2022-12-22T03:33:43.547Z,12.85
2022-12-22T03:36:11.682Z,11.50
2022-12-22T03:38:39.419Z,13.23
2022-12-22T03:41:07.165Z,12.98
2022-12-22T03:43:52.361Z,12.50
2022-12-22T03:46:32.300Z,13.18
2022-12-22T03:49:12.187Z,12.88
2022-12-22T03:51:42.980Z,13.38
2022-12-22T03:54:11.891Z,13.38
2022-12-22T03:56:39.960Z,15.70
2022-12-22T03:59:08.256Z,17.48
2022-12-22T04:01:40.689Z,13.73
2022-12-22T04:04:10.190Z,13.23
2022-12-22T04:06:37.902Z,15.77
2022-12-22T04:09:05.681Z,15.75
2022-12-22T04:11:51.005Z,14.45
2022-12-22T04:14:18.724Z,12.98
2022-12-22T04:16:46.529Z,13.18
2022-12-22T04:19:16.080Z,13.23
2022-12-22T04:21:44.435Z,12.00
2022-12-22T04:24:12.720Z,13.18
2022-12-22T04:26:41.043Z,12.18
2022-12-22T04:29:08.669Z,13.60
2022-12-22T04:31:36.535Z,12.45
2022-12-22T04:34:04.222Z,14.00
2022-12-22T04:36:33.133Z,12.80
2022-12-22T04:39:00.836Z,12.63
2022-12-22T04:41:28.484Z,12.05
2022-12-22T04:43:56.092Z,10.93
2022-12-22T04:46:23.828Z,11.50
2022-12-22T04:48:56.185Z,11.00
2022-12-22T04:51:27.377Z,10.05
2022-12-22T04:53:56.369Z,10.57
2022-12-22T04:56:24.081Z,12.02
2022-12-22T04:58:51.631Z,10.98
2022-12-22T05:01:19.999Z,10.27
2022-12-22T05:03:48.323Z,11.00
2022-12-22T05:06:16.471Z,10.65
2022-12-22T05:08:44.091Z,11.20
2022-12-22T05:11:13.147Z,11.68
2022-12-22T05:13:40.813Z,9.98
2022-12-22T05:16:10.888Z,11.88
2022-12-22T05:18:39.435Z,10.63
2022-12-22T05:21:09.192Z,13.25
2022-12-22T05:23:36.933Z,12.40
2022-12-22T05:26:04.651Z,12.43
2022-12-22T05:28:33.616Z,11.32
2022-12-22T05:31:05.357Z,14.15
2022-12-22T05:33:34.829Z,13.68
2022-12-22T05:36:03.231Z,14.35
2022-12-22T05:38:30.836Z,15.02
2022-12-22T05:41:04.330Z,14.65
2022-12-22T05:43:34.969Z,15.38
2022-12-22T05:46:03.745Z,13.88
2022-12-22T05:48:37.478Z,15.82
2022-12-22T05:51:07.295Z,14.48
2022-12-22T05:53:35.012Z,14.25
2022-12-22T05:56:02.722Z,15.15
2022-12-22T05:58:30.530Z,15.43
2022-12-22T06:01:00.617Z,14.20
2022-12-22T06:03:30.091Z,15.98
2022-12-22T06:05:58.436Z,17.35
2022-12-22T06:08:27.122Z,20.23
2022-12-22T06:10:55.992Z,15.18
2022-12-22T06:13:26.757Z,17.77
2022-12-22T06:15:58.006Z,18.77
2022-12-22T06:18:31.157Z,19.70
2022-12-22T06:21:04.861Z,18.35
2022-12-22T06:23:37.137Z,17.38
2022-12-22T06:26:10.214Z,19.42
2022-12-22T06:28:39.977Z,18.38
2022-12-22T06:31:09.199Z,22.63
2022-12-22T06:33:43.424Z,19.17
2022-12-22T06:36:13.030Z,20.90
2022-12-22T06:38:40.795Z,17.63
2022-12-22T06:41:08.719Z,20.85
2022-12-22T06:43:35.555Z,21.40
2022-12-22T06:46:06.260Z,19.80
2022-12-22T06:48:34.284Z,22.35
2022-12-22T06:51:12.575Z,20.83
2022-12-22T06:53:42.480Z,23.13
2022-12-22T06:56:10.357Z,27.42
2022-12-22T06:58:40.760Z,20.30
2022-12-22T07:01:11.413Z,22.85
2022-12-22T07:03:41.147Z,21.30
2022-12-22T07:06:12.860Z,18.85
2022-12-22T07:08:41.647Z,22.77
2022-12-22T07:11:12.678Z,21.42
2022-12-22T07:13:40.473Z,23.25
2022-12-22T07:16:10.000Z,20.45
2022-12-22T07:18:40.120Z,19.88
2022-12-22T07:21:10.503Z,23.48
2022-12-22T07:23:39.407Z,21.55
2022-12-22T07:26:10.747Z,21.88
2022-12-22T07:28:40.686Z,22.20
2022-12-22T07:31:16.825Z,23.13
2022-12-22T07:33:46.523Z,24.30
2022-12-22T07:36:23.102Z,21.15
2022-12-22T07:38:53.969Z,23.95
2022-12-22T07:41:39.329Z,19.23
2022-12-22T07:44:08.510Z,24.85
2022-12-22T07:46:40.538Z,24.33
2022-12-22T07:49:26.368Z,23.83
2022-12-22T07:51:59.171Z,25.98
2022-12-22T07:54:30.498Z,22.55
2022-12-22T07:56:58.367Z,22.15
2022-12-22T07:59:26.138Z,20.50
2022-12-22T08:01:53.989Z,20.73
2022-12-22T08:04:22.647Z,21.00
2022-12-22T08:06:50.501Z,21.15
2022-12-22T08:09:21.589Z,20.98
2022-12-22T08:11:50.238Z,20.98
2022-12-22T08:14:18.094Z,17.95
2022-12-22T08:17:00.896Z,17.02
2022-12-22T08:19:28.621Z,18.48
2022-12-22T08:21:56.468Z,18.48
2022-12-22T08:24:26.230Z,16.60
2022-12-22T08:26:58.844Z,15.85
2022-12-22T08:29:30.500Z,16.60
2022-12-22T08:31:58.551Z,17.20
2022-12-22T08:34:26.364Z,18.35
2022-12-22T08:36:57.637Z,14.07
2022-12-22T08:39:29.678Z,14.18
2022-12-22T08:41:57.516Z,14.18
2022-12-22T08:44:27.282Z,16.20
2022-12-22T08:46:58.915Z,16.45
2022-12-22T08:49:27.641Z,17.15
2022-12-22T08:51:55.402Z,16.38
2022-12-22T08:54:23.054Z,17.50
2022-12-22T08:56:52.935Z,17.63
2022-12-22T08:59:20.703Z,16.10
2022-12-22T09:01:50.702Z,17.88
2022-12-22T09:04:21.080Z,16.88
2022-12-22T09:06:48.900Z,14.63
2022-12-22T09:09:17.771Z,14.00
2022-12-22T09:11:45.511Z,13.63
2022-12-22T09:14:15.070Z,14.23
2022-12-22T09:16:42.911Z,13.88
2022-12-22T09:19:10.979Z,15.15
2022-12-22T09:21:38.749Z,17.15
2022-12-22T09:24:08.147Z,17.52
2022-12-22T09:26:36.212Z,17.48
2022-12-22T09:29:04.517Z,17.13
2022-12-22T09:31:33.996Z,14.68
2022-12-22T09:34:02.075Z,18.90
2022-12-22T09:36:32.879Z,18.70
2022-12-22T09:39:04.879Z,17.90
2022-12-22T09:41:36.123Z,19.75
2022-12-22T09:44:05.835Z,18.85
2022-12-22T09:46:37.631Z,20.25
2022-12-22T09:49:07.141Z,23.02
2022-12-22T09:51:42.506Z,23.83
2022-12-22T09:54:12.677Z,24.77
2022-12-22T09:56:40.335Z,28.67
2022-12-22T09:59:11.610Z,24.48
2022-12-22T10:01:58.971Z,22.00
2022-12-22T10:04:39.627Z,24.85
2022-12-22T10:07:20.140Z,27.02
2022-12-22T10:09:51.316Z,28.05
2022-12-22T10:12:21.935Z,30.80
2022-12-22T10:14:51.643Z,25.02
2022-12-22T10:17:24.063Z,30.73
2022-12-22T10:19:54.334Z,31.15
2022-12-22T10:22:29.824Z,31.27
2022-12-22T10:24:58.164Z,30.17
2022-12-22T10:27:30.132Z,28.13
2022-12-22T10:30:19.923Z,30.20
2022-12-22T10:33:03.550Z,24.13
2022-12-22T10:35:48.232Z,26.65
2022-12-22T10:38:21.212Z,25.17
2022-12-22T10:40:56.648Z,25.00
2022-12-22T10:43:32.271Z,26.80
2022-12-22T10:46:00.605Z,25.70
2022-12-22T10:48:35.806Z,23.83
2022-12-22T10:51:06.612Z,26.17
2022-12-22T10:53:42.957Z,22.50
2022-12-22T10:56:22.228Z,22.65
2022-12-22T10:58:52.957Z,23.63
2022-12-22T11:01:26.785Z,22.30
2022-12-22T11:04:17.087Z,22.27
2022-12-22T11:06:45.519Z,21.15
2022-12-22T11:09:33.335Z,21.55
2022-12-22T11:12:11.713Z,24.10
2022-12-22T11:14:54.134Z,24.50
2022-12-22T11:17:38.416Z,22.38
2022-12-22T11:20:27.504Z,23.15
2022-12-22T11:23:03.207Z,26.48
2022-12-22T11:25:42.660Z,23.17
2022-12-22T11:28:37.690Z,21.85
2022-12-22T11:31:18.473Z,22.38
2022-12-22T11:33:57.652Z,23.40
2022-12-22T11:36:34.507Z,22.63
2022-12-22T11:39:08.092Z,22.08
2022-12-22T11:41:56.298Z,21.27
2022-12-22T11:44:38.508Z,22.80
2022-12-22T11:47:16.361Z,21.33
2022-12-22T11:50:58.554Z,23.02
2022-12-22T11:53:07.259Z,25.13
2022-12-22T11:55:38.302Z,20.95
2022-12-22T11:58:23.525Z,20.95
2022-12-22T12:01:20.507Z,23.92
2022-12-22T12:04:02.634Z,22.25
2022-12-22T12:06:53.745Z,21.90
2022-12-22T12:09:36.006Z,22.45
2022-12-22T12:12:12.517Z,22.92
2022-12-22T12:14:48.676Z,23.02
2022-12-22T12:17:25.377Z,18.90
2022-12-22T12:20:09.537Z,16.67
2022-12-22T12:22:48.014Z,24.38
2022-12-22T12:25:29.232Z,21.85
2022-12-22T12:28:16.307Z,18.95
2022-12-22T12:30:52.434Z,19.42
2022-12-22T12:33:25.255Z,20.50
2022-12-22T12:36:00.133Z,19.77
2022-12-22T12:41:31.981Z,20.75
2022-12-22T12:44:00.902Z,21.42
2022-12-22T12:46:57.053Z,19.23
2022-12-22T12:49:56.852Z,18.67
2022-12-22T12:53:07.087Z,19.88
2022-12-22T12:55:51.694Z,17.98
2022-12-22T12:58:52.863Z,19.50
2022-12-22T13:01:55.398Z,19.40
2022-12-22T13:05:01.816Z,17.02
2022-12-22T13:08:06.925Z,21.27
2022-12-22T13:10:37.040Z,19.65
2022-12-22T13:13:05.126Z,17.15
2022-12-22T13:15:35.699Z,15.55
2022-12-22T13:18:05.047Z,16.95
2022-12-22T13:20:36.031Z,13.75
2022-12-22T13:23:10.739Z,15.80
2022-12-22T13:25:46.256Z,17.27
2022-12-22T13:28:17.271Z,15.85
2022-12-22T13:30:49.404Z,16.15
2022-12-22T13:33:20.515Z,15.93
2022-12-22T13:35:53.398Z,13.32
2022-12-22T13:38:30.177Z,20.23
2022-12-22T13:41:00.413Z,19.83
2022-12-22T13:43:45.069Z,17.80
2022-12-22T13:46:14.131Z,16.30
2022-12-22T13:48:45.523Z,21.33
2022-12-22T13:51:19.947Z,15.05
2022-12-22T13:54:08.958Z,16.63
2022-12-22T13:56:40.530Z,12.10
2022-12-22T13:59:24.895Z,15.93
2022-12-22T14:01:59.162Z,14.23
2022-12-22T14:04:27.628Z,14.93
2022-12-22T14:06:55.974Z,11.38
2022-12-22T14:09:25.658Z,14.43
2022-12-22T14:11:58.641Z,18.73
2022-12-22T14:14:29.578Z,13.65
2022-12-22T14:17:00.397Z,14.68
2022-12-22T14:19:32.067Z,14.90
2022-12-22T14:22:05.367Z,12.38
2022-12-22T14:24:38.713Z,19.55
2022-12-22T14:27:07.709Z,18.38
2022-12-22T14:29:35.581Z,15.85
2022-12-22T14:32:04.898Z,21.20
2022-12-22T14:34:34.357Z,24.13
2022-12-22T14:37:03.367Z,14.90
2022-12-22T14:39:32.785Z,15.43
2022-12-22T14:42:03.002Z,17.08
2022-12-22T14:44:34.247Z,15.20
2022-12-22T14:47:15.864Z,15.68
2022-12-22T14:49:50.104Z,16.30
2022-12-22T14:52:23.327Z,16.88
2022-12-22T14:54:53.022Z,19.00
2022-12-22T14:57:28.475Z,19.83
2022-12-22T15:00:01.493Z,19.20
2022-12-22T15:02:38.760Z,13.48
2022-12-22T15:05:26.917Z,17.15
2022-12-22T15:08:05.956Z,18.13
2022-12-22T15:10:39.111Z,16.13
2022-12-22T15:13:11.822Z,20.88
2022-12-22T15:15:39.442Z,15.07
2022-12-22T15:18:14.747Z,19.65
2022-12-22T15:20:42.390Z,17.58
2022-12-22T15:23:14.020Z,18.80
2022-12-22T15:25:44.410Z,17.05
2022-12-22T15:28:12.193Z,13.30
2022-12-22T15:30:45.610Z,14.85
2022-12-22T15:33:17.121Z,17.52
2022-12-22T15:35:45.983Z,22.38
2022-12-22T15:38:15.611Z,23.30
2022-12-22T15:40:43.381Z,21.30
2022-12-22T15:43:28.729Z,25.92
2022-12-22T15:45:59.903Z,23.15
2022-12-22T15:48:32.836Z,19.13
2022-12-22T15:51:03.336Z,16.60
2022-12-22T15:53:32.731Z,15.70
2022-12-22T15:56:00.480Z,21.15
2022-12-22T15:58:32.902Z,16.23
2022-12-22T16:01:00.608Z,17.35
2022-12-22T16:03:29.707Z,19.73
2022-12-22T16:05:57.972Z,16.67
2022-12-22T16:08:30.647Z,22.00
2022-12-22T16:10:58.717Z,19.83
2022-12-22T16:13:28.784Z,25.02
2022-12-22T16:15:57.426Z,18.30
2022-12-22T16:18:27.079Z,19.38
2022-12-22T16:20:57.300Z,17.85
2022-12-22T16:23:26.693Z,15.93
2022-12-22T16:26:01.337Z,17.48
2022-12-22T16:28:29.574Z,15.77
2022-12-22T16:30:57.608Z,17.75
2022-12-22T16:33:25.291Z,16.60
2022-12-22T16:35:53.172Z,15.60
2022-12-22T16:38:22.198Z,14.48
2022-12-22T16:40:52.489Z,16.08
2022-12-22T16:46:14.949Z,18.83
2022-12-22T16:48:45.385Z,21.13
2022-12-22T16:51:20.060Z,20.60
2022-12-22T16:53:49.121Z,15.45
2022-12-22T16:56:20.115Z,15.25
2022-12-22T16:58:48.245Z,14.18
2022-12-22T17:01:22.999Z,18.38
2022-12-22T17:03:50.881Z,19.50
2022-12-22T17:06:18.859Z,16.85
2022-12-22T17:08:47.451Z,20.05
2022-12-22T17:11:22.083Z,12.85
2022-12-22T17:13:51.255Z,11.05
2022-12-22T17:16:21.555Z,13.95
2022-12-22T17:18:50.015Z,12.63
2022-12-22T17:21:19.370Z,12.77
2022-12-22T17:23:50.588Z,12.57
2022-12-22T17:26:22.189Z,13.65
2022-12-22T17:28:50.715Z,16.65
2022-12-22T17:31:20.334Z,15.23
2022-12-22T17:33:48.259Z,18.10
2022-12-22T17:36:31.347Z,14.40
2022-12-22T17:38:59.534Z,18.13
2022-12-22T17:41:28.560Z,15.38
2022-12-22T17:43:56.379Z,14.50
2022-12-22T17:46:24.222Z,15.80
2022-12-22T17:48:51.986Z,19.23
2022-12-22T17:51:23.660Z,21.48
2022-12-22T17:53:52.320Z,15.00
2022-12-22T17:56:22.296Z,20.90
2022-12-22T17:58:51.487Z,18.17
2022-12-22T18:01:25.085Z,15.32
2022-12-22T18:03:53.462Z,19.80
2022-12-22T18:06:23.861Z,21.70
2022-12-22T18:08:52.924Z,19.67
2022-12-22T18:11:20.656Z,20.92
2022-12-22T18:13:48.543Z,25.27
2022-12-22T18:16:20.607Z,26.05
2022-12-22T18:18:48.739Z,22.08
2022-12-22T18:21:17.997Z,24.73
2022-12-22T18:23:49.945Z,25.50
2022-12-22T18:26:22.021Z,19.77
2022-12-22T18:28:50.271Z,19.05
2022-12-22T18:31:20.130Z,19.88
2022-12-22T18:33:47.772Z,22.73
2022-12-22T18:36:20.704Z,18.30
2022-12-22T18:38:49.425Z,17.08
2022-12-22T18:41:21.872Z,13.10
2022-12-22T18:43:49.621Z,21.52
2022-12-22T18:46:18.852Z,19.38
2022-12-22T18:48:47.465Z,15.80
2022-12-22T18:51:19.848Z,19.17
2022-12-22T18:53:47.630Z,18.27
2022-12-22T18:56:15.516Z,25.35
2022-12-22T18:58:43.654Z,19.95
2022-12-22T19:01:21.456Z,21.20
2022-12-22T19:03:50.346Z,23.23
2022-12-22T19:06:20.458Z,19.95
2022-12-22T19:08:48.260Z,21.08
2022-12-22T19:11:19.219Z,19.58
2022-12-22T19:13:48.874Z,21.10
2022-12-22T19:16:20.022Z,20.77
2022-12-22T19:18:49.224Z,23.10
2022-12-22T19:21:19.592Z,19.77
2022-12-22T19:23:47.650Z,23.52
2022-12-22T19:26:22.920Z,23.10
2022-12-22T19:28:53.622Z,20.70
2022-12-22T19:31:24.423Z,17.20
2022-12-22T19:33:53.982Z,17.08
2022-12-22T19:36:25.593Z,24.50
2022-12-22T19:39:02.690Z,19.00
2022-12-22T19:41:39.279Z,15.73
2022-12-22T19:44:07.372Z,22.23
2022-12-22T19:46:36.433Z,19.50
2022-12-22T19:49:05.452Z,20.13
2022-12-22T19:51:33.270Z,21.23
2022-12-22T19:54:00.833Z,17.52
2022-12-22T19:56:30.757Z,16.35
2022-12-22T19:59:00.808Z,17.17
2022-12-22T20:01:28.689Z,18.08
2022-12-22T20:03:56.907Z,19.63
2022-12-22T20:06:25.821Z,16.80
2022-12-22T20:08:54.140Z,15.90
2022-12-22T20:11:21.828Z,17.27
2022-12-22T20:13:50.065Z,18.15
2022-12-22T20:16:18.154Z,17.05
2022-12-22T20:18:46.439Z,22.23
2022-12-22T20:21:18.773Z,18.85
2022-12-22T20:23:48.215Z,20.45
2022-12-22T20:26:31.159Z,20.50
2022-12-22T20:29:05.462Z,20.05
2022-12-22T20:31:33.375Z,21.33
2022-12-22T20:34:01.230Z,16.60
2022-12-22T20:36:31.948Z,20.77
2022-12-22T20:39:02.091Z,19.10
2022-12-22T20:41:29.736Z,22.48
2022-12-22T20:43:57.439Z,23.33
2022-12-22T20:46:27.459Z,15.50
2022-12-22T20:48:56.764Z,19.52
2022-12-22T20:51:26.740Z,21.40
2022-12-22T20:53:55.031Z,20.83
2022-12-22T20:56:28.820Z,19.60
2022-12-22T20:58:57.316Z,19.23
2022-12-22T21:01:25.124Z,20.20
2022-12-22T21:03:53.087Z,22.85
2022-12-22T21:06:27.081Z,21.15
2022-12-22T21:08:56.837Z,19.58
2022-12-22T21:11:26.563Z,17.92
2022-12-22T21:13:55.069Z,20.02
2022-12-22T21:16:25.998Z,21.75
2022-12-22T21:18:55.306Z,21.83
2022-12-22T21:21:23.643Z,23.88
2022-12-22T21:23:51.614Z,26.10
2022-12-22T21:26:23.905Z,24.77
2022-12-22T21:28:56.746Z,20.60
2022-12-22T21:31:24.508Z,22.35
2022-12-22T21:33:52.262Z,21.80
2022-12-22T21:36:24.037Z,24.45
2022-12-22T21:38:53.906Z,22.98
2022-12-22T21:41:43.614Z,21.95
2022-12-22T21:44:13.353Z,21.63
2022-12-22T21:46:42.521Z,24.05
2022-12-22T21:49:19.556Z,23.80
2022-12-22T21:51:47.276Z,23.48
2022-12-22T21:54:15.332Z,23.27
2022-12-22T21:56:42.934Z,19.17
2022-12-22T21:59:12.086Z,20.33
2022-12-22T22:01:41.737Z,21.85
2022-12-22T22:04:10.052Z,19.33
2022-12-22T22:06:37.989Z,23.80
2022-12-22T22:09:07.197Z,22.98
2022-12-22T22:11:56.868Z,20.13
2022-12-22T22:14:26.111Z,26.77
2022-12-22T22:16:53.938Z,24.35
2022-12-22T22:19:21.649Z,21.98
2022-12-22T22:21:49.462Z,24.02
2022-12-22T22:24:17.212Z,22.27
2022-12-22T22:26:46.214Z,22.40
2022-12-22T22:29:14.135Z,21.25
2022-12-22T22:31:44.116Z,21.35
2022-12-22T22:34:12.136Z,23.67
2022-12-22T22:36:39.782Z,20.08
2022-12-22T22:39:07.433Z,24.08
2022-12-22T22:41:41.011Z,29.58
2022-12-22T22:44:10.863Z,25.52
2022-12-22T22:46:38.545Z,22.80
2022-12-22T22:49:07.902Z,23.10
2022-12-22T22:51:35.526Z,23.63
2022-12-22T22:54:03.455Z,24.92
2022-12-22T22:56:31.176Z,25.08
2022-12-22T22:58:59.953Z,23.77
2022-12-22T23:01:28.492Z,21.80
2022-12-22T23:03:56.327Z,22.25
2022-12-22T23:06:25.317Z,25.67
2022-12-22T23:08:54.134Z,21.05
2022-12-22T23:11:21.814Z,23.55
2022-12-22T23:13:49.891Z,24.45
2022-12-22T23:16:21.198Z,21.70
2022-12-22T23:18:49.464Z,29.02
2022-12-22T23:21:17.155Z,21.55
2022-12-22T23:23:46.176Z,28.70
2022-12-22T23:26:13.897Z,26.27
2022-12-22T23:28:41.601Z,22.83
2022-12-22T23:31:12.478Z,25.50
2022-12-22T23:33:40.134Z,24.08
2022-12-22T23:36:08.634Z,21.70
2022-12-22T23:38:36.789Z,24.98
2022-12-22T23:41:07.583Z,23.23
2022-12-22T23:43:35.548Z,25.92
2022-12-22T23:46:07.284Z,25.27
2022-12-22T23:48:35.752Z,23.27
2022-12-22T23:51:03.577Z,26.98
2022-12-22T23:53:31.366Z,26.33
2022-12-22T23:55:59.236Z,26.45
2022-12-22T23:58:28.401Z,28.13
